Time;durP1;ratioP1;P1;durP2;ratioP2;P2;SDS_P1;SDS_P2;PMS_P1;PMS_P2;Temp;Humidity;BMP_temperature;BMP_pressure;BME280_temperature;BME280_humidity;BME280_pressure;Samples;Min_cycle;Max_cycle;Signal;HPM_P1;HPM_P2
2023/03/31 00:01:40;;;;;;;14.68;3.33;;;15.70;75.40;;;;;;6215644;23;20083;-79
2023/03/31 00:04:08;;;;;;;12.77;3.28;;;15.70;75.40;;;;;;6189126;23;20342;-80
2023/03/31 00:06:37;;;;;;;16.60;3.90;;;15.70;75.50;;;;;;6215813;23;20503;-79
2023/03/31 00:09:17;;;;;;;12.48;3.00;;;15.70;75.40;;;;;;6216087;23;20347;-79
2023/03/31 00:11:44;;;;;;;9.82;2.95;;;15.70;75.40;;;;;;6216181;23;20032;-80
2023/03/31 00:14:10;;;;;;;14.35;3.30;;;15.70;75.20;;;;;;6189512;23;20009;-78
2023/03/31 00:16:38;;;;;;;17.92;4.03;;;15.70;75.10;;;;;;6215874;23;20070;-79
2023/03/31 00:19:05;;;;;;;12.32;4.00;;;15.60;74.80;;;;;;6216141;23;20063;-78
2023/03/31 00:21:35;;;;;;;12.23;4.07;;;15.50;74.70;;;;;;6215437;23;19997;-80
2023/03/31 00:24:11;;;;;;;17.17;4.97;;;15.50;75.20;;;;;;6215390;23;20008;-79
2023/03/31 00:26:37;;;;;;;17.88;5.80;;;15.40;74.90;;;;;;6215938;23;20004;-79
2023/03/31 00:29:05;;;;;;;14.95;5.35;;;15.40;74.90;;;;;;6215847;23;20080;-79
2023/03/31 00:31:30;;;;;;;19.50;5.80;;;15.30;74.90;;;;;;6189277;23;20016;-79
2023/03/31 00:33:57;;;;;;;19.33;4.82;;;15.30;74.90;;;;;;6215697;23;20323;-80
2023/03/31 00:36:26;;;;;;;16.95;6.47;;;15.30;75.00;;;;;;6189283;23;20013;-78
2023/03/31 00:39:07;;;;;;;22.10;5.97;;;15.30;74.70;;;;;;6191248;23;20005;-81
2023/03/31 00:41:36;;;;;;;16.80;5.68;;;15.30;74.80;;;;;;6222672;23;20000;-79
2023/03/31 00:44:11;;;;;;;15.18;5.53;;;15.30;74.60;;;;;;6217974;23;20005;-78
2023/03/31 00:46:49;;;;;;;16.42;4.75;;;15.30;74.60;;;;;;6216083;23;20084;-79
2023/03/31 00:49:25;;;;;;;12.90;5.03;;;15.30;74.50;;;;;;6215940;23;20000;-80
2023/03/31 00:51:53;;;;;;;18.23;5.10;;;15.30;74.30;;;;;;6189003;23;20143;-81
2023/03/31 00:54:20;;;;;;;13.63;4.97;;;15.30;74.10;;;;;;6215548;23;20008;-80
2023/03/31 00:56:48;;;;;;;15.38;5.35;;;15.30;74.10;;;;;;6215291;23;20013;-78
2023/03/31 00:59:14;;;;;;;13.73;4.60;;;15.20;74.00;;;;;;6215513;23;20004;-79
2023/03/31 01:01:43;;;;;;;14.32;5.00;;;15.20;74.00;;;;;;6188831;23;20008;-80
2023/03/31 01:04:11;;;;;;;17.92;5.22;;;15.20;73.90;;;;;;6215872;23;20435;-80
2023/03/31 01:06:56;;;;;;;15.93;4.85;;;15.10;73.80;;;;;;6215963;23;20003;-80
2023/03/31 01:09:23;;;;;;;14.00;4.57;;;15.10;74.00;;;;;;6215530;23;20027;-79
2023/03/31 01:11:49;;;;;;;11.65;4.18;;;15.10;74.00;;;;;;6215625;23;20004;-80
2023/03/31 01:14:15;;;;;;;17.75;4.00;;;15.00;73.80;;;;;;6215857;23;20005;-80
2023/03/31 01:16:41;;;;;;;15.02;3.97;;;15.00;73.70;;;;;;6188792;23;20343;-79
2023/03/31 01:19:19;;;;;;;11.48;3.47;;;15.00;73.80;;;;;;6188996;23;20032;-79
2023/03/31 01:21:52;;;;;;;15.35;3.75;;;15.00;73.80;;;;;;6215129;23;20001;-78
2023/03/31 01:24:46;;;;;;;13.00;3.63;;;15.00;73.90;;;;;;6215399;23;20003;-79
2023/03/31 01:27:32;;;;;;;10.15;3.47;;;15.00;73.90;;;;;;6215730;23;20009;-78
2023/03/31 01:30:35;;;;;;;12.63;3.70;;;15.00;73.90;;;;;;6215402;23;20443;-79
2023/03/31 01:33:25;;;;;;;12.60;3.40;;;15.00;73.70;;;;;;6215621;23;20013;-80
2023/03/31 01:36:12;;;;;;;13.02;3.50;;;15.10;73.80;;;;;;6225377;23;20055;-79
2023/03/31 01:39:11;;;;;;;14.88;3.53;;;15.10;73.70;;;;;;6229674;23;20334;-77
2023/03/31 01:41:37;;;;;;;14.40;3.65;;;15.10;73.60;;;;;;6216244;23;20051;-80
2023/03/31 01:44:10;;;;;;;11.30;3.60;;;15.10;73.30;;;;;;6215435;23;20008;-79
2023/03/31 01:46:40;;;;;;;11.52;3.17;;;15.10;73.20;;;;;;6215288;23;20075;-79
2023/03/31 01:49:33;;;;;;;11.05;3.28;;;15.00;73.10;;;;;;6215077;23;20054;-79
2023/03/31 01:52:45;;;;;;;14.52;3.47;;;14.90;73.30;;;;;;6215309;23;20005;-78
2023/03/31 01:55:19;;;;;;;11.65;3.80;;;15.00;73.50;;;;;;6207714;23;20005;-79
2023/03/31 01:57:52;;;;;;;11.40;3.00;;;15.00;73.70;;;;;;6214815;23;20072;-80
2023/03/31 02:00:24;;;;;;;10.90;3.15;;;15.00;73.20;;;;;;6214715;23;20288;-80
2023/03/31 02:02:58;;;;;;;9.65;2.95;;;15.00;73.10;;;;;;6188326;23;20505;-79
2023/03/31 02:05:30;;;;;;;12.30;3.15;;;15.00;73.40;;;;;;6217516;23;20020;-79
2023/03/31 02:08:08;;;;;;;12.45;3.08;;;15.10;73.10;;;;;;6218689;23;20055;-79
2023/03/31 02:10:34;;;;;;;10.20;2.53;;;15.10;73.30;;;;;;6215648;23;20071;-80
2023/03/31 02:13:02;;;;;;;9.38;2.83;;;15.10;72.80;;;;;;6213544;23;20004;-79
2023/03/31 02:15:33;;;;;;;11.88;2.80;;;15.10;73.00;;;;;;6222171;23;20342;-80
2023/03/31 02:18:04;;;;;;;12.40;3.10;;;15.10;73.00;;;;;;6223219;23;20013;-78
2023/03/31 02:20:32;;;;;;;16.73;3.20;;;15.10;72.90;;;;;;6215689;23;20422;-80
2023/03/31 02:22:59;;;;;;;10.82;2.88;;;15.20;72.80;;;;;;6222148;23;20031;-80
2023/03/31 02:25:35;;;;;;;11.18;3.13;;;15.20;72.80;;;;;;6215288;23;20004;-80
2023/03/31 02:28:07;;;;;;;8.70;3.05;;;15.20;73.30;;;;;;6214951;23;19997;-80
2023/03/31 02:30:58;;;;;;;12.52;3.58;;;15.20;72.80;;;;;;6214888;23;20098;-80
2023/03/31 02:33:24;;;;;;;14.00;3.20;;;15.20;73.50;;;;;;6138992;23;20016;-79
2023/03/31 02:35:50;;;;;;;14.05;3.35;;;15.10;72.80;;;;;;6214369;23;20005;-79
2023/03/31 02:38:16;;;;;;;14.50;3.35;;;15.20;73.00;;;;;;6214820;23;20007;-79
2023/03/31 02:40:42;;;;;;;8.35;3.00;;;15.20;72.80;;;;;;6214735;23;20005;-78
2023/03/31 02:43:08;;;;;;;12.88;2.70;;;15.20;72.90;;;;;;6214705;23;20378;-79
2023/03/31 02:45:48;;;;;;;11.43;3.33;;;15.10;72.70;;;;;;6214358;23;20001;-79
2023/03/31 02:48:29;;;;;;;12.95;3.15;;;15.10;72.80;;;;;;6214514;23;20578;-79
2023/03/31 02:51:07;;;;;;;10.00;2.75;;;15.10;73.10;;;;;;6214892;23;20017;-79
2023/03/31 02:53:52;;;;;;;14.57;2.95;;;15.00;72.60;;;;;;6214483;23;20059;-79
2023/03/31 02:56:33;;;;;;;9.93;2.60;;;15.00;73.00;;;;;;6214610;23;20000;-79
2023/03/31 02:59:09;;;;;;;11.27;3.03;;;15.00;73.00;;;;;;6216047;23;20285;-79
2023/03/31 03:01:54;;;;;;;10.75;2.75;;;15.00;73.10;;;;;;6214289;23;20000;-79
2023/03/31 03:04:26;;;;;;;8.88;3.10;;;14.90;72.70;;;;;;6214635;23;20007;-80
2023/03/31 03:07:15;;;;;;;8.25;2.58;;;14.90;72.70;;;;;;6214591;23;20008;-79
2023/03/31 03:10:05;;;;;;;10.35;3.42;;;14.90;72.80;;;;;;6188468;23;20020;-80
2023/03/31 03:12:36;;;;;;;8.82;2.70;;;14.80;72.80;;;;;;6214007;23;20051;-78
2023/03/31 03:15:06;;;;;;;10.38;2.75;;;14.80;72.80;;;;;;6214751;23;20439;-78
2023/03/31 03:17:46;;;;;;;9.18;2.53;;;14.70;72.80;;;;;;6215048;23;20051;-78
2023/03/31 03:20:15;;;;;;;13.88;2.88;;;14.70;73.10;;;;;;6216610;23;20338;-80
2023/03/31 03:22:41;;;;;;;9.95;2.80;;;14.80;72.90;;;;;;6216498;23;20004;-78
2023/03/31 03:25:10;;;;;;;12.40;2.90;;;14.80;72.80;;;;;;6216544;23;20005;-79
2023/03/31 03:27:36;;;;;;;15.85;3.60;;;14.80;72.60;;;;;;6216162;23;20300;-80
2023/03/31 03:30:04;;;;;;;9.98;2.60;;;14.80;72.60;;;;;;6215962;23;20009;-79
2023/03/31 03:32:30;;;;;;;10.30;2.90;;;14.80;72.50;;;;;;6189728;23;20036;-79
2023/03/31 03:34:56;;;;;;;9.20;2.70;;;14.80;72.50;;;;;;6216809;23;20015;-80
2023/03/31 03:37:22;;;;;;;12.02;2.75;;;14.80;72.20;;;;;;6218661;23;20067;-79
2023/03/31 03:39:47;;;;;;;9.65;2.78;;;14.90;72.40;;;;;;6222792;23;20382;-79
2023/03/31 03:42:13;;;;;;;8.95;2.92;;;14.80;71.90;;;;;;6221048;23;19996;-80
2023/03/31 03:44:39;;;;;;;9.18;3.38;;;14.70;72.20;;;;;;6216070;23;20028;-79
2023/03/31 03:47:05;;;;;;;10.77;3.22;;;14.70;72.40;;;;;;6216188;23;19996;-80
2023/03/31 03:49:31;;;;;;;9.85;3.17;;;14.70;72.20;;;;;;6216082;23;20001;-80
2023/03/31 03:51:56;;;;;;;11.38;3.38;;;14.70;72.20;;;;;;6215981;23;20005;-79
2023/03/31 03:54:22;;;;;;;16.58;3.75;;;14.70;72.10;;;;;;6189340;23;20037;-81
2023/03/31 03:56:48;;;;;;;9.32;3.88;;;14.60;72.10;;;;;;6216248;23;20001;-79
2023/03/31 03:59:14;;;;;;;10.60;3.58;;;14.60;72.10;;;;;;6215868;23;20008;-80
2023/03/31 04:01:40;;;;;;;12.52;4.00;;;14.60;72.10;;;;;;6215810;23;20043;-80
2023/03/31 04:04:05;;;;;;;11.00;3.83;;;14.70;72.30;;;;;;6216474;23;20012;-79
2023/03/31 04:06:31;;;;;;;12.60;4.15;;;14.60;72.00;;;;;;6216805;23;20008;-79
2023/03/31 04:08:57;;;;;;;14.82;3.95;;;14.70;72.20;;;;;;6215644;23;20451;-78
2023/03/31 04:11:23;;;;;;;13.60;3.72;;;14.80;72.30;;;;;;6215561;23;20391;-78
2023/03/31 04:13:49;;;;;;;17.98;4.50;;;14.80;72.00;;;;;;6216073;23;20005;-78
2023/03/31 04:16:15;;;;;;;12.35;4.03;;;14.80;72.10;;;;;;6215587;23;20476;-78
2023/03/31 04:18:44;;;;;;;12.30;3.55;;;14.90;72.00;;;;;;6215887;23;20005;-80
2023/03/31 04:21:14;;;;;;;13.82;3.70;;;14.80;72.20;;;;;;6215955;23;20005;-78
2023/03/31 04:23:47;;;;;;;12.20;3.00;;;14.80;72.00;;;;;;6215953;23;20005;-80
2023/03/31 04:26:15;;;;;;;16.48;3.65;;;14.80;72.10;;;;;;6189068;23;20009;-80
2023/03/31 04:28:41;;;;;;;12.10;3.80;;;14.90;71.90;;;;;;6215129;23;20001;-79
2023/03/31 04:31:15;;;;;;;12.05;4.00;;;14.80;72.00;;;;;;6215571;23;20016;-79
2023/03/31 04:33:44;;;;;;;14.23;4.28;;;14.80;71.90;;;;;;6216626;23;20001;-79
2023/03/31 04:36:16;;;;;;;9.65;3.83;;;14.90;72.10;;;;;;6216521;23;20087;-79
2023/03/31 04:38:45;;;;;;;12.43;4.65;;;14.80;71.90;;;;;;6215587;23;20003;-82
2023/03/31 04:41:14;;;;;;;15.35;5.18;;;14.80;72.10;;;;;;6215536;23;20103;-78
2023/03/31 04:43:40;;;;;;;16.40;4.90;;;14.80;72.40;;;;;;6213635;23;20115;-79
2023/03/31 04:46:06;;;;;;;15.73;5.00;;;14.80;72.20;;;;;;6215758;23;20071;-77
2023/03/31 04:48:32;;;;;;;17.88;5.30;;;14.80;72.20;;;;;;6215094;23;19996;-80
2023/03/31 04:50:57;;;;;;;12.63;4.63;;;14.80;72.20;;;;;;6215598;23;20100;-79
2023/03/31 04:53:23;;;;;;;19.42;4.72;;;14.80;72.20;;;;;;6215536;23;20032;-80
2023/03/31 04:55:49;;;;;;;11.77;4.72;;;14.80;72.20;;;;;;6215720;23;20032;-80
2023/03/31 04:58:15;;;;;;;15.65;4.65;;;14.80;72.20;;;;;;6188910;23;20047;-80
2023/03/31 05:00:41;;;;;;;12.30;4.20;;;14.80;72.30;;;;;;6215366;23;20000;-79
2023/03/31 05:03:08;;;;;;;14.43;5.00;;;14.80;72.20;;;;;;6215403;23;20004;-81
2023/03/31 05:05:34;;;;;;;14.30;4.88;;;14.80;72.20;;;;;;6215348;23;20000;-78
2023/03/31 05:08:00;;;;;;;18.42;4.93;;;14.80;72.10;;;;;;6215115;23;20403;-80
2023/03/31 05:10:26;;;;;;;10.70;4.30;;;14.90;72.30;;;;;;6215655;23;20047;-79
2023/03/31 05:12:52;;;;;;;17.13;5.57;;;14.90;72.20;;;;;;6188655;23;20004;-79
2023/03/31 05:15:18;;;;;;;15.00;6.30;;;14.90;72.20;;;;;;6215183;23;20001;-80
2023/03/31 05:17:43;;;;;;;17.63;7.40;;;14.80;72.20;;;;;;6215075;23;20013;-79
2023/03/31 05:20:10;;;;;;;17.67;7.93;;;14.80;72.20;;;;;;6188682;23;20016;-81
2023/03/31 05:22:37;;;;;;;18.23;7.30;;;14.70;72.30;;;;;;6188591;23;20390;-79
2023/03/31 05:25:05;;;;;;;18.95;7.25;;;14.70;72.30;;;;;;6215480;23;20434;-80
2023/03/31 05:27:32;;;;;;;20.80;7.38;;;14.70;72.30;;;;;;6188704;23;20005;-79
2023/03/31 05:29:58;;;;;;;19.88;7.35;;;14.60;72.30;;;;;;6188712;23;20027;-79
2023/03/31 05:32:25;;;;;;;15.45;7.55;;;14.60;72.30;;;;;;6215082;23;20113;-80
2023/03/31 05:34:51;;;;;;;18.00;6.32;;;14.60;72.30;;;;;;6214903;23;20439;-83
2023/03/31 05:37:19;;;;;;;16.08;6.38;;;14.60;72.60;;;;;;6217288;23;20003;-81
2023/03/31 05:39:45;;;;;;;20.20;7.78;;;14.60;72.60;;;;;;6222113;23;20000;-80
2023/03/31 05:42:11;;;;;;;16.48;6.38;;;14.70;72.60;;;;;;6228582;23;20473;-72
2023/03/31 05:44:36;;;;;;;12.48;5.78;;;14.80;72.60;;;;;;6188069;23;20043;-70
2023/03/31 05:47:02;;;;;;;15.27;5.78;;;14.80;72.40;;;;;;6215232;23;19997;-70
2023/03/31 05:49:28;;;;;;;14.35;5.40;;;14.90;72.30;;;;;;6214722;23;20004;-70
2023/03/31 05:51:55;;;;;;;12.57;4.90;;;15.00;71.90;;;;;;6214370;23;20011;-71
2023/03/31 05:54:21;;;;;;;12.80;4.90;;;15.10;71.80;;;;;;6214852;23;19997;-71
2023/03/31 05:56:47;;;;;;;22.10;5.30;;;15.10;71.70;;;;;;6214764;23;20099;-70
2023/03/31 05:59:13;;;;;;;13.27;4.82;;;15.20;71.50;;;;;;6214783;23;20036;-71
2023/03/31 06:01:39;;;;;;;12.85;5.10;;;15.20;71.40;;;;;;6214812;23;20000;-71
2023/03/31 06:04:05;;;;;;;13.82;4.10;;;15.30;71.00;;;;;;6214480;23;20004;-69
2023/03/31 06:06:32;;;;;;;12.05;5.10;;;15.40;70.80;;;;;;6214477;23;20055;-70
2023/03/31 06:08:57;;;;;;;14.85;4.75;;;15.40;70.60;;;;;;6214562;23;20008;-70
2023/03/31 06:11:23;;;;;;;11.35;4.60;;;15.50;70.40;;;;;;6214642;23;20051;-71
2023/03/31 06:13:49;;;;;;;12.38;5.03;;;15.70;70.00;;;;;;6214537;23;20024;-71
2023/03/31 06:16:16;;;;;;;16.80;5.63;;;15.70;69.50;;;;;;6214476;23;20013;-71
2023/03/31 06:18:42;;;;;;;13.10;5.32;;;15.80;69.40;;;;;;6214471;23;20338;-71
2023/03/31 06:21:12;;;;;;;14.75;4.35;;;15.90;69.30;;;;;;6214549;23;20000;-68
2023/03/31 06:23:38;;;;;;;14.70;5.10;;;16.10;68.50;;;;;;6215024;23;20001;-70
2023/03/31 06:26:07;;;;;;;12.43;4.88;;;16.20;68.40;;;;;;6215212;23;20095;-71
2023/03/31 06:28:34;;;;;;;13.60;4.93;;;16.40;67.80;;;;;;6214923;23;20001;-72
2023/03/31 06:31:00;;;;;;;18.20;5.25;;;16.50;67.50;;;;;;6215298;23;20048;-72
2023/03/31 06:33:26;;;;;;;12.82;5.20;;;16.70;67.30;;;;;;6188496;23;20001;-75
2023/03/31 06:35:56;;;;;;;13.63;4.70;;;17.00;67.00;;;;;;6214516;23;20079;-72
2023/03/31 06:38:22;;;;;;;19.70;5.05;;;17.20;66.40;;;;;;6188079;23;20005;-70
2023/03/31 06:40:48;;;;;;;18.85;5.07;;;17.30;66.10;;;;;;6187807;23;20019;-70
2023/03/31 06:43:14;;;;;;;14.13;5.03;;;17.30;65.80;;;;;;6214533;23;20032;-71
2023/03/31 06:45:40;;;;;;;20.25;4.90;;;17.10;66.10;;;;;;6187609;23;20292;-71
2023/03/31 06:48:05;;;;;;;16.20;5.97;;;17.00;66.20;;;;;;6214872;23;20407;-72
2023/03/31 06:50:31;;;;;;;16.50;5.35;;;17.00;66.50;;;;;;6212422;23;20070;-71
2023/03/31 06:52:57;;;;;;;15.55;4.43;;;17.10;66.70;;;;;;6215302;23;20001;-71
2023/03/31 06:55:23;;;;;;;20.73;4.65;;;17.10;66.40;;;;;;6216611;23;20013;-72
2023/03/31 06:57:49;;;;;;;16.92;5.25;;;17.00;66.20;;;;;;6216073;23;20441;-72
2023/03/31 07:00:15;;;;;;;16.15;5.20;;;17.10;66.40;;;;;;6216258;23;20012;-73
2023/03/31 07:02:42;;;;;;;15.57;4.13;;;17.10;66.40;;;;;;6216322;23;19997;-73
2023/03/31 07:05:08;;;;;;;14.80;4.05;;;17.10;66.30;;;;;;6216753;23;20036;-72
2023/03/31 07:07:34;;;;;;;14.80;4.97;;;17.20;66.30;;;;;;6216313;23;20005;-71
2023/03/31 07:09:59;;;;;;;19.75;3.83;;;17.30;66.40;;;;;;6216234;23;20019;-71
2023/03/31 07:12:25;;;;;;;18.67;4.60;;;17.30;66.10;;;;;;6215971;23;20000;-71
2023/03/31 07:14:51;;;;;;;15.82;4.70;;;17.30;66.10;;;;;;6215801;23;20076;-71
2023/03/31 07:17:16;;;;;;;12.55;4.93;;;17.30;66.20;;;;;;6215622;23;20040;-72
2023/03/31 07:19:46;;;;;;;17.50;5.05;;;17.30;66.00;;;;;;6216421;23;20502;-74
2023/03/31 07:22:13;;;;;;;11.63;4.30;;;17.40;66.00;;;;;;6216308;23;20308;-76
2023/03/31 07:24:39;;;;;;;21.48;4.63;;;17.50;66.00;;;;;;6215751;23;20004;-76
2023/03/31 07:27:05;;;;;;;15.25;4.30;;;17.50;66.10;;;;;;6216150;23;20020;-77
2023/03/31 07:29:31;;;;;;;16.75;4.60;;;17.60;65.90;;;;;;6214320;23;20013;-78
2023/03/31 07:31:56;;;;;;;12.10;4.15;;;17.50;65.90;;;;;;6217464;23;20032;-82
2023/03/31 07:34:22;;;;;;;10.02;4.05;;;17.60;65.80;;;;;;6223712;23;20000;-79
2023/03/31 07:36:48;;;;;;;14.27;3.90;;;17.60;65.60;;;;;;6226376;23;19997;-78
2023/03/31 07:39:13;;;;;;;13.73;4.40;;;17.60;65.70;;;;;;6221463;23;20011;-79
2023/03/31 07:41:39;;;;;;;12.68;4.07;;;17.70;65.80;;;;;;6220865;23;20024;-76
2023/03/31 07:44:05;;;;;;;10.40;3.67;;;17.70;65.60;;;;;;6216621;23;20032;-83
2023/03/31 07:46:31;;;;;;;13.50;4.43;;;17.80;65.50;;;;;;6215928;23;20070;-76
2023/03/31 07:48:57;;;;;;;20.05;4.65;;;17.80;65.50;;;;;;6215887;23;20004;-81
2023/03/31 07:51:25;;;;;;;20.08;4.28;;;17.90;65.50;;;;;;6216524;23;20028;-83
2023/03/31 07:53:51;;;;;;;20.23;4.28;;;18.00;65.40;;;;;;6217071;23;20001;-77
2023/03/31 07:56:19;;;;;;;15.18;3.88;;;18.10;65.30;;;;;;6216015;23;20012;-80
2023/03/31 07:58:46;;;;;;;21.50;4.72;;;18.10;65.10;;;;;;6215626;23;19997;-78
2023/03/31 08:01:16;;;;;;;12.57;4.05;;;18.20;65.30;;;;;;6215812;23;20004;-79
2023/03/31 08:03:43;;;;;;;11.82;3.53;;;18.30;65.10;;;;;;6215644;23;20023;-80
2023/03/31 08:06:09;;;;;;;16.80;3.78;;;18.30;65.10;;;;;;6215725;23;20387;-79
2023/03/31 08:08:37;;;;;;;22.60;4.50;;;18.30;65.00;;;;;;6215860;23;19996;-82
2023/03/31 08:11:03;;;;;;;11.90;4.18;;;18.30;65.30;;;;;;6215404;23;20454;-80
2023/03/31 08:13:29;;;;;;;13.02;3.78;;;18.30;65.30;;;;;;6215861;23;20386;-81
2023/03/31 08:15:55;;;;;;;16.20;3.72;;;18.30;65.10;;;;;;6189171;23;20035;-80
2023/03/31 08:18:21;;;;;;;17.45;4.05;;;18.40;64.80;;;;;;6215707;23;20031;-78
2023/03/31 08:20:48;;;;;;;16.52;3.58;;;18.40;64.80;;;;;;6215396;23;20450;-81
2023/03/31 08:23:14;;;;;;;17.70;4.57;;;18.50;64.90;;;;;;6188634;23;20004;-80
2023/03/31 08:25:40;;;;;;;20.38;4.07;;;18.50;64.80;;;;;;6215311;23;20008;-81
2023/03/31 08:28:09;;;;;;;17.00;4.70;;;18.50;64.60;;;;;;6214858;23;20054;-80
2023/03/31 08:30:37;;;;;;;22.33;3.97;;;18.50;64.70;;;;;;6215943;23;20008;-80
2023/03/31 08:33:03;;;;;;;17.10;5.40;;;18.50;64.40;;;;;;6215633;23;20008;-81
2023/03/31 08:35:28;;;;;;;22.08;4.70;;;18.50;64.40;;;;;;6215653;23;20073;-81
2023/03/31 08:37:54;;;;;;;17.83;4.53;;;18.50;64.30;;;;;;6216036;23;20000;-80
2023/03/31 08:40:24;;;;;;;15.20;4.40;;;18.50;64.50;;;;;;6216054;23;20011;-80
2023/03/31 08:43:13;;;;;;;18.98;4.05;;;18.50;64.30;;;;;;6216068;23;20007;-80
2023/03/31 08:45:42;;;;;;;17.08;4.72;;;18.50;64.50;;;;;;6215579;23;20040;-80
2023/03/31 08:48:20;;;;;;;17.23;4.15;;;18.60;64.40;;;;;;6215461;23;20000;-81
2023/03/31 08:50:57;;;;;;;17.88;4.15;;;18.60;64.50;;;;;;6215768;23;20016;-81
2023/03/31 08:53:25;;;;;;;11.55;4.22;;;18.80;64.80;;;;;;6215372;23;20091;-81
2023/03/31 08:55:56;;;;;;;15.70;4.05;;;18.80;64.70;;;;;;6215629;23;20454;-80
2023/03/31 08:58:46;;;;;;;16.02;4.55;;;18.80;64.50;;;;;;6215514;23;20000;-81
2023/03/31 09:01:21;;;;;;;20.70;4.43;;;18.90;64.30;;;;;;6216050;23;20031;-82
2023/03/31 09:04:17;;;;;;;13.73;4.22;;;19.00;64.40;;;;;;6188614;23;20343;-82
2023/03/31 09:07:01;;;;;;;11.93;3.83;;;19.00;64.40;;;;;;6215677;23;20005;-81
2023/03/31 09:09:45;;;;;;;;;;;19.00;64.10;;;;;;6216178;23;20000;-83
2023/03/31 09:12:18;;;;;;;13.70;4.93;;;19.10;64.50;;;;;;6215614;23;19900;-80
2023/03/31 09:15:03;;;;;;;14.85;4.72;;;19.10;64.50;;;;;;6215117;23;20115;-80
2023/03/31 09:17:41;;;;;;;22.85;5.00;;;19.10;64.60;;;;;;6215203;23;20021;-82
2023/03/31 09:20:35;;;;;;;13.80;4.07;;;19.20;64.40;;;;;;6215736;23;20331;-81
2023/03/31 09:23:16;;;;;;;15.00;3.83;;;19.20;64.20;;;;;;6189043;23;20015;-81
2023/03/31 09:25:43;;;;;;;17.52;4.55;;;19.10;64.80;;;;;;6188641;23;20032;-81
2023/03/31 09:28:21;;;;;;;18.85;5.07;;;19.10;64.60;;;;;;6215059;23;20004;-83
2023/03/31 09:30:50;;;;;;;17.00;5.25;;;19.20;65.10;;;;;;6216026;23;20046;-84
2023/03/31 09:33:30;;;;;;;20.60;4.82;;;19.10;64.80;;;;;;6214816;23;19997;-80
2023/03/31 09:36:00;;;;;;;19.02;4.70;;;19.20;65.00;;;;;;6214850;23;20000;-85
2023/03/31 09:38:28;;;;;;;32.90;4.68;;;19.30;65.10;;;;;;6214623;23;20422;-82
2023/03/31 09:40:58;;;;;;;21.90;4.47;;;19.30;65.30;;;;;;6213490;23;20019;-81
2023/03/31 09:43:27;;;;;;;24.17;4.63;;;19.30;65.50;;;;;;6213800;23;20008;-80
2023/03/31 09:45:54;;;;;;;19.85;4.60;;;19.40;65.20;;;;;;6213849;23;19996;-82
2023/03/31 09:48:27;;;;;;;16.33;4.13;;;19.30;65.40;;;;;;6215301;23;20068;-80
2023/03/31 09:51:05;;;;;;;16.90;3.88;;;19.40;65.20;;;;;;6188557;23;20024;-80
2023/03/31 09:54:01;;;;;;;14.88;4.88;;;19.50;65.20;;;;;;6214521;23;20040;-81
2023/03/31 09:56:33;;;;;;;16.83;4.63;;;19.50;65.00;;;;;;6193639;23;20032;-81
2023/03/31 09:59:03;;;;;;;20.45;4.47;;;19.60;65.10;;;;;;6217042;23;20001;-79
2023/03/31 10:01:29;;;;;;;21.42;4.97;;;19.70;64.90;;;;;;6215849;23;20088;-79
2023/03/31 10:03:55;;;;;;;12.73;4.20;;;19.70;64.80;;;;;;6214705;23;20001;-78
2023/03/31 10:06:23;;;;;;;16.88;4.20;;;19.70;64.70;;;;;;6213649;23;20035;-77
2023/03/31 10:09:00;;;;;;;19.67;4.68;;;19.80;64.80;;;;;;6213895;23;20005;-76
2023/03/31 10:11:28;;;;;;;15.43;3.97;;;19.80;64.80;;;;;;6214500;23;20016;-79
2023/03/31 10:14:13;;;;;;;22.25;4.65;;;19.90;64.30;;;;;;6214522;23;20071;-80
2023/03/31 10:16:41;;;;;;;13.95;3.90;;;20.00;64.50;;;;;;6214041;23;20016;-73
2023/03/31 10:19:18;;;;;;;16.30;4.63;;;20.10;64.20;;;;;;6214218;23;20068;-74
2023/03/31 10:21:47;;;;;;;16.95;6.45;;;20.30;64.20;;;;;;6189150;23;20419;-74
2023/03/31 10:24:18;;;;;;;18.65;5.32;;;20.30;63.80;;;;;;6215662;23;20004;-80
2023/03/31 10:26:48;;;;;;;13.25;4.07;;;20.20;63.60;;;;;;6215013;23;20051;-74
2023/03/31 10:29:29;;;;;;;16.50;4.68;;;20.10;63.60;;;;;;6217644;23;20000;-79
2023/03/31 10:31:55;;;;;;;18.08;4.07;;;20.10;63.80;;;;;;6191668;23;20092;-84
2023/03/31 10:34:22;;;;;;;19.50;4.20;;;20.10;64.10;;;;;;6219690;23;19997;-80
2023/03/31 10:36:50;;;;;;;16.85;4.50;;;20.20;63.80;;;;;;6217517;23;20462;-79
2023/03/31 10:39:17;;;;;;;18.25;4.10;;;20.10;64.10;;;;;;6216817;23;20005;-76
2023/03/31 10:41:52;;;;;;;15.77;4.13;;;20.10;65.40;;;;;;6190359;23;20005;-77
2023/03/31 10:44:39;;;;;;;14.25;3.72;;;20.20;64.50;;;;;;6216641;23;20004;-77
2023/03/31 10:47:24;;;;;;;18.50;4.90;;;20.10;64.70;;;;;;6216817;23;20035;-80
2023/03/31 10:49:56;;;;;;;20.33;4.53;;;20.20;64.10;;;;;;6216147;23;20020;-76
2023/03/31 10:52:29;;;;;;;19.48;5.18;;;20.20;63.70;;;;;;6216386;23;20374;-75
2023/03/31 10:55:00;;;;;;;19.67;5.27;;;20.30;64.40;;;;;;6216127;23;20073;-69
2023/03/31 10:57:54;;;;;;;14.85;4.28;;;20.30;63.50;;;;;;6216597;23;20327;-78
2023/03/31 11:00:31;;;;;;;14.48;4.10;;;20.30;63.80;;;;;;6216564;23;20008;-75
2023/03/31 11:03:05;;;;;;;17.52;4.65;;;20.30;63.70;;;;;;6189842;23;20316;-75
2023/03/31 11:05:50;;;;;;;13.32;4.38;;;20.50;63.70;;;;;;6216235;23;20007;-76
2023/03/31 11:08:34;;;;;;;15.00;4.03;;;20.60;63.60;;;;;;6216806;23;20062;-75
2023/03/31 11:11:46;;;;;;;11.52;4.03;;;20.60;63.60;;;;;;6215898;23;20092;-76
2023/03/31 11:14:27;;;;;;;16.05;4.00;;;20.70;63.00;;;;;;6103002;23;20091;-79
2023/03/31 11:17:08;;;;;;;11.43;4.20;;;20.70;63.00;;;;;;6189325;23;20028;-77
2023/03/31 11:19:55;;;;;;;18.63;4.25;;;20.80;63.40;;;;;;6216144;23;20427;-76
2023/03/31 11:22:29;;;;;;;17.55;4.70;;;20.80;62.70;;;;;;6189727;23;20009;-76
2023/03/31 11:25:19;;;;;;;17.42;4.80;;;20.80;62.50;;;;;;6216518;23;20000;-78
2023/03/31 11:28:19;;;;;;;17.50;5.28;;;20.70;61.90;;;;;;6216642;23;20004;-80
2023/03/31 11:31:02;;;;;;;16.70;4.63;;;20.60;62.50;;;;;;6229021;23;20038;-79
2023/03/31 11:33:30;;;;;;;21.20;4.90;;;20.50;63.00;;;;;;6215754;23;20001;-79
2023/03/31 11:36:24;;;;;;;18.63;4.43;;;20.40;63.00;;;;;;6216133;23;20001;-75
2023/03/31 11:39:02;;;;;;;16.88;4.35;;;20.50;62.70;;;;;;6215927;23;20001;-74
2023/03/31 11:41:48;;;;;;;25.38;5.38;;;20.50;62.80;;;;;;6216038;23;20012;-78
2023/03/31 11:44:17;;;;;;;17.80;4.75;;;20.50;62.60;;;;;;6216106;23;20004;-78
2023/03/31 11:47:11;;;;;;;21.02;4.90;;;20.50;62.30;;;;;;6215954;23;20000;-77
2023/03/31 11:49:59;;;;;;;13.55;4.05;;;20.60;62.50;;;;;;6215724;23;20066;-78
2023/03/31 11:52:43;;;;;;;17.75;4.85;;;20.70;62.60;;;;;;6215970;23;20042;-77
2023/03/31 11:55:16;;;;;;;19.38;5.40;;;20.80;62.40;;;;;;6190467;23;20032;-78
2023/03/31 11:58:06;;;;;;;11.77;4.47;;;20.80;62.40;;;;;;6215630;23;20028;-78
2023/03/31 12:00:51;;;;;;;15.82;4.15;;;20.70;62.70;;;;;;6216736;23;20382;-78
2023/03/31 12:03:56;;;;;;;17.60;4.20;;;20.80;63.50;;;;;;6190932;23;20013;-79
2023/03/31 12:06:28;;;;;;;16.05;4.68;;;20.90;62.20;;;;;;6066515;23;20014;-79
2023/03/31 12:08:56;;;;;;;10.55;3.72;;;20.90;62.20;;;;;;6195688;23;20008;-80
2023/03/31 12:11:40;;;;;;;17.35;4.20;;;21.00;62.70;;;;;;6216252;23;20079;-79
2023/03/31 12:14:28;;;;;;;14.00;4.18;;;21.00;62.10;;;;;;6216159;23;20001;-79
2023/03/31 12:17:11;;;;;;;18.58;4.45;;;20.90;62.70;;;;;;6216054;23;20021;-80
2023/03/31 12:19:57;;;;;;;20.33;4.83;;;20.80;62.50;;;;;;6211122;23;20347;-77
2023/03/31 12:22:30;;;;;;;18.67;3.83;;;20.80;62.60;;;;;;6213972;23;20007;-80
2023/03/31 12:24:56;;;;;;;16.30;4.43;;;20.90;62.10;;;;;;6216857;23;20438;-80
2023/03/31 12:27:40;;;;;;;15.90;3.83;;;20.90;62.30;;;;;;6214779;23;20012;-80
2023/03/31 12:30:14;;;;;;;15.00;3.92;;;21.00;62.10;;;;;;6216507;23;20013;-78
2023/03/31 12:32:48;;;;;;;16.08;4.28;;;21.10;62.60;;;;;;6188546;23;20015;-79
2023/03/31 12:35:32;;;;;;;15.68;4.43;;;21.10;62.10;;;;;;6215207;23;20005;-77
2023/03/31 12:37:57;;;;;;;;;;;21.10;62.40;;;;;;6215332;23;20334;-77
2023/03/31 12:40:40;;;;;;;21.15;4.95;;;21.10;61.80;;;;;;6212420;23;19927;-73
2023/03/31 12:43:15;;;;;;;22.73;4.70;;;21.10;62.30;;;;;;6214623;23;20341;-77
2023/03/31 12:45:59;;;;;;;14.80;4.43;;;21.20;62.10;;;;;;6214998;23;20032;-79
2023/03/31 12:48:41;;;;;;;14.23;3.90;;;21.10;62.50;;;;;;6215076;23;20002;-76
2023/03/31 12:51:18;;;;;;;16.30;4.45;;;21.20;62.70;;;;;;6214945;23;20012;-79
2023/03/31 12:54:02;;;;;;;19.48;5.53;;;21.10;62.50;;;;;;6214237;23;20015;-77
2023/03/31 12:57:03;;;;;;;17.80;4.32;;;21.00;62.50;;;;;;6214777;23;20032;-78
2023/03/31 12:59:34;;;;;;;22.48;4.50;;;20.90;62.60;;;;;;6214367;23;20358;-80
2023/03/31 13:02:22;;;;;;;19.33;4.50;;;20.90;62.50;;;;;;6214100;23;20080;-79
2023/03/31 13:04:49;;;;;;;15.88;5.03;;;20.80;63.00;;;;;;6215483;23;20007;-79